Time;durP1;ratioP1;P1;durP2;ratioP2;P2;SDS_P1;SDS_P2;PMS_P1;PMS_P2;Temp;Humidity;BMP_temperature;BMP_pressure;BME280_temperature;BME280_humidity;BME280_pressure;Samples;Min_cycle;Max_cycle;Signal;HPM_P1;HPM_P2
2023/01/30 00:01:18;;;;;;;;;;;18.50;32.60;;;;;;8364053;28;19943;-43
2023/01/30 00:05:18;;;;;;;;;;;18.50;32.60;;;;;;8363278;28;19927;-43
2023/01/30 00:09:19;;;;;;;;;;;18.50;32.70;;;;;;8362825;28;19956;-44
2023/01/30 00:13:19;;;;;;;;;;;18.40;32.60;;;;;;8363179;28;19921;-43
2023/01/30 00:17:20;;;;;;;;;;;18.40;32.70;;;;;;8363455;28;19970;-44
2023/01/30 00:21:20;;;;;;;;;;;18.40;32.70;;;;;;8363309;28;19916;-43
2023/01/30 00:25:21;;;;;;;;;;;18.30;32.60;;;;;;8363124;28;20007;-43
2023/01/30 00:29:21;;;;;;;;;;;18.30;32.60;;;;;;8363030;28;19920;-43
2023/01/30 00:33:22;;;;;;;;;;;18.30;32.60;;;;;;8362460;28;19924;-43
2023/01/30 00:37:23;;;;;;;;;;;18.20;32.70;;;;;;8366463;28;19917;-43
2023/01/30 00:47:03;;;;;;;;;;;18.20;32.60;;;;;;8369961;28;19916;-43
2023/01/30 00:50:04;;;;;;;;;;;18.20;32.60;;;;;;8370648;28;19927;-44
2023/01/30 00:54:04;;;;;;;;;;;18.20;32.60;;;;;;8368852;28;20283;-43
2023/01/30 00:58:05;;;;;;;;;;;18.20;32.60;;;;;;8369491;28;20358;-42
2023/01/30 01:02:05;;;;;;;;;;;18.20;32.60;;;;;;8369214;28;20394;-44
2023/01/30 01:06:06;;;;;;;;;;;18.10;32.60;;;;;;8368478;28;19916;-44
2023/01/30 01:10:07;;;;;;;;;;;18.10;32.60;;;;;;8368709;28;19920;-43
2023/01/30 01:14:07;;;;;;;;;;;18.10;32.60;;;;;;8368542;28;20297;-43
2023/01/30 01:18:08;;;;;;;;;;;18.10;32.60;;;;;;8368065;28;20320;-43
2023/01/30 01:22:08;;;;;;;;;;;18.10;32.70;;;;;;8368867;28;19952;-43
2023/01/30 01:26:09;;;;;;;;;;;18.00;32.70;;;;;;8368378;28;19927;-44
2023/01/30 01:30:09;;;;;;;;;;;18.00;32.60;;;;;;8367694;28;19928;-44
2023/01/30 01:34:10;;;;;;;;;;;18.00;32.60;;;;;;8368199;28;20274;-43
2023/01/30 01:38:10;;;;;;;;;;;18.00;32.70;;;;;;8368005;28;19956;-43
2023/01/30 01:42:11;;;;;;;;;;;18.00;32.70;;;;;;8367599;28;19916;-43
2023/01/30 01:46:15;;;;;;;;;;;17.90;32.60;;;;;;8367572;28;19916;-44
2023/01/30 01:50:21;;;;;;;;;;;17.90;32.70;;;;;;8366191;28;19924;-43
2023/01/30 01:54:26;;;;;;;;;;;17.90;32.70;;;;;;8366821;28;19925;-43
2023/01/30 01:58:30;;;;;;;;;;;17.90;32.70;;;;;;8367689;28;20374;-43
2023/01/30 02:02:32;;;;;;;;;;;17.90;32.70;;;;;;8367493;28;20428;-44
2023/01/30 02:06:32;;;;;;;;;;;17.90;32.70;;;;;;8343623;28;19918;-43
2023/01/30 02:10:42;;;;;;;;;;;17.90;32.60;;;;;;8356489;28;19923;-44
2023/01/30 02:14:43;;;;;;;;;;;17.90;32.70;;;;;;8366394;28;20293;-44
2023/01/30 02:18:44;;;;;;;;;;;17.90;32.70;;;;;;8366615;28;19921;-43
2023/01/30 02:23:06;;;;;;;;;;;17.80;32.70;;;;;;8366742;28;19913;-43
2023/01/30 02:27:12;;;;;;;;;;;17.80;32.60;;;;;;8366239;28;19916;-43
2023/01/30 02:31:21;;;;;;;;;;;17.90;32.70;;;;;;8366334;28;19932;-43
2023/01/30 02:35:31;;;;;;;;;;;17.80;32.70;;;;;;8366156;28;19971;-43
2023/01/30 02:39:32;;;;;;;;;;;17.80;32.60;;;;;;8365630;28;20400;-43
2023/01/30 02:43:39;;;;;;;;;;;17.80;32.70;;;;;;8365959;28;19996;-43
2023/01/30 02:47:53;;;;;;;;;;;17.80;32.70;;;;;;8365547;28;19920;-43
2023/01/30 02:51:55;;;;;;;;;;;17.80;32.60;;;;;;8365679;28;19970;-43
2023/01/30 02:55:55;;;;;;;;;;;17.80;32.60;;;;;;8365388;28;19925;-43
2023/01/30 02:59:58;;;;;;;;;;;17.80;32.70;;;;;;8364280;28;19990;-43
2023/01/30 03:04:04;;;;;;;;;;;17.80;32.60;;;;;;8365529;28;19968;-44
2023/01/30 03:08:15;;;;;;;;;;;17.80;32.70;;;;;;8365329;28;19912;-43
2023/01/30 03:12:16;;;;;;;;;;;17.80;33.20;;;;;;8364648;28;19917;-44
2023/01/30 03:16:25;;;;;;;;;;;17.70;32.60;;;;;;8364812;28;20058;-43
2023/01/30 03:20:25;;;;;;;;;;;17.70;32.60;;;;;;8364792;28;20370;-43
2023/01/30 03:24:26;;;;;;;;;;;17.70;32.60;;;;;;8364122;28;19924;-43
2023/01/30 03:28:27;;;;;;;;;;;17.70;32.70;;;;;;8364607;28;19913;-43
2023/01/30 03:32:27;;;;;;;;;;;17.70;32.70;;;;;;8364453;28;19913;-43
2023/01/30 03:36:27;;;;;;;;;;;17.70;32.70;;;;;;8363808;28;20519;-43
2023/01/30 03:40:28;;;;;;;;;;;17.60;32.60;;;;;;8364144;28;19921;-45
2023/01/30 03:44:28;;;;;;;;;;;17.60;32.70;;;;;;8363936;28;19935;-43
2023/01/30 03:48:29;;;;;;;;;;;17.60;32.70;;;;;;8363603;28;19967;-43
2023/01/30 03:52:29;;;;;;;;;;;17.60;32.70;;;;;;8363957;28;20365;-44
2023/01/30 03:56:30;;;;;;;;;;;17.60;32.70;;;;;;8364101;28;19929;-44
2023/01/30 04:00:31;;;;;;;;;;;17.50;32.70;;;;;;8363226;28;19926;-43
2023/01/30 04:04:31;;;;;;;;;;;17.50;32.80;;;;;;8363408;28;19917;-44
2023/01/30 04:08:32;;;;;;;;;;;17.50;32.80;;;;;;8363642;28;20336;-43
2023/01/30 04:12:32;;;;;;;;;;;17.50;32.80;;;;;;8362612;28;19917;-44
2023/01/30 04:16:33;;;;;;;;;;;17.50;32.80;;;;;;8363267;28;19971;-44
2023/01/30 04:20:33;;;;;;;;;;;17.50;32.70;;;;;;8362716;28;19921;-43
2023/01/30 04:24:33;;;;;;;;;;;17.50;32.70;;;;;;8363126;28;19943;-44
2023/01/30 04:28:34;;;;;;;;;;;17.50;32.70;;;;;;8363476;28;19916;-44
2023/01/30 04:32:35;;;;;;;;;;;17.40;32.60;;;;;;8362564;28;19967;-45
2023/01/30 04:36:35;;;;;;;;;;;17.50;32.70;;;;;;8362148;28;19936;-43
2023/01/30 04:40:36;;;;;;;;;;;17.50;32.70;;;;;;8362759;28;20015;-44
2023/01/30 04:44:36;;;;;;;;;;;17.40;32.60;;;;;;8362308;28;20279;-43
2023/01/30 04:48:38;;;;;;;;;;;17.40;32.60;;;;;;8362810;28;19913;-44
2023/01/30 04:52:38;;;;;;;;;;;17.40;32.60;;;;;;8362763;28;20054;-44
2023/01/30 04:56:39;;;;;;;;;;;17.50;32.70;;;;;;8362139;28;19931;-42
2023/01/30 05:00:39;;;;;;;;;;;17.40;32.60;;;;;;8362442;28;20012;-43
2023/01/30 05:04:40;;;;;;;;;;;17.40;32.50;;;;;;8362470;28;20279;-44
2023/01/30 05:08:40;;;;;;;;;;;17.50;32.60;;;;;;8362033;28;20378;-43
2023/01/30 05:12:42;;;;;;;;;;;17.50;32.70;;;;;;8359219;28;22109;-43
2023/01/30 05:16:43;;;;;;;;;;;17.50;32.70;;;;;;8362208;28;19933;-45
2023/01/30 05:20:43;;;;;;;;;;;17.60;32.60;;;;;;8361810;28;19921;-44
2023/01/30 05:24:44;;;;;;;;;;;17.70;32.60;;;;;;8367644;28;20447;-43
2023/01/30 05:28:49;;;;;;;;;;;17.70;32.40;;;;;;8368398;28;19921;-44
2023/01/30 05:32:49;;;;;;;;;;;17.80;32.40;;;;;;8367663;28;19975;-44
2023/01/30 05:36:50;;;;;;;;;;;17.90;32.30;;;;;;8368291;28;19971;-44
2023/01/30 05:41:00;;;;;;;;;;;17.90;32.30;;;;;;8367860;28;19952;-44
2023/01/30 05:45:01;;;;;;;;;;;18.00;32.20;;;;;;8367322;28;20278;-43
2023/01/30 05:49:03;;;;;;;;;;;18.00;32.10;;;;;;8368002;28;19917;-43
2023/01/30 05:53:03;;;;;;;;;;;18.00;32.10;;;;;;8367311;28;19924;-44
2023/01/30 05:57:03;;;;;;;;;;;18.10;32.10;;;;;;8367150;28;20012;-45
2023/01/30 06:01:05;;;;;;;;;;;18.10;32.10;;;;;;8367512;28;19917;-45
2023/01/30 06:05:06;;;;;;;;;;;18.10;32.10;;;;;;8367227;28;19935;-43
2023/01/30 06:09:09;;;;;;;;;;;18.20;32.00;;;;;;8366820;28;19917;-44
2023/01/30 06:13:10;;;;;;;;;;;18.20;32.00;;;;;;8366749;28;19931;-43
2023/01/30 06:17:10;;;;;;;;;;;18.30;32.00;;;;;;8366780;28;19916;-44
2023/01/30 06:21:10;;;;;;;;;;;18.20;31.90;;;;;;8366200;28;20309;-43
2023/01/30 06:25:11;;;;;;;;;;;18.30;32.00;;;;;;8366512;28;19912;-44
2023/01/30 06:29:11;;;;;;;;;;;18.30;32.00;;;;;;8366479;28;19917;-44
2023/01/30 06:33:12;;;;;;;;;;;18.40;32.00;;;;;;8365171;28;19921;-45
2023/01/30 06:37:12;;;;;;;;;;;18.40;31.90;;;;;;8366056;28;20377;-43
2023/01/30 06:41:13;;;;;;;;;;;18.40;31.90;;;;;;8366206;28;19955;-44
2023/01/30 06:45:14;;;;;;;;;;;18.40;32.00;;;;;;8365528;28;19917;-44
2023/01/30 06:49:15;;;;;;;;;;;18.50;31.90;;;;;;8366205;28;20449;-44
2023/01/30 06:53:15;;;;;;;;;;;18.50;31.90;;;;;;8365519;28;19921;-43
2023/01/30 06:57:15;;;;;;;;;;;18.50;31.90;;;;;;8364867;28;19929;-43
2023/01/30 07:01:17;;;;;;;;;;;18.50;31.80;;;;;;8365406;28;19936;-44
2023/01/30 07:05:18;;;;;;;;;;;18.60;31.90;;;;;;8365251;28;19924;-44
2023/01/30 07:09:18;;;;;;;;;;;18.60;31.90;;;;;;8365016;28;19921;-43
2023/01/30 07:13:19;;;;;;;;;;;18.60;31.90;;;;;;8365031;28;20405;-44
2023/01/30 07:17:19;;;;;;;;;;;18.60;31.90;;;;;;8365005;28;19920;-45
2023/01/30 07:21:20;;;;;;;;;;;18.60;31.80;;;;;;8364454;28;19975;-43
2023/01/30 07:25:22;;;;;;;;;;;18.70;31.80;;;;;;8364658;28;19913;-43
2023/01/30 07:29:23;;;;;;;;;;;18.70;31.80;;;;;;8364774;28;20449;-43
2023/01/30 07:33:23;;;;;;;;;;;18.70;31.70;;;;;;8363704;28;19931;-43
2023/01/30 07:37:24;;;;;;;;;;;18.70;31.70;;;;;;8364640;28;20016;-44
2023/01/30 07:41:24;;;;;;;;;;;18.80;31.70;;;;;;8364213;28;19916;-43
2023/01/30 07:45:26;;;;;;;;;;;18.80;31.70;;;;;;8363594;28;20239;-43
2023/01/30 07:49:27;;;;;;;;;;;18.80;31.70;;;;;;8364257;28;19917;-43
2023/01/30 07:53:27;;;;;;;;;;;18.80;31.70;;;;;;8363867;28;19943;-43
2023/01/30 07:57:28;;;;;;;;;;;18.80;31.70;;;;;;8363034;28;19921;-43
2023/01/30 08:01:28;;;;;;;;;;;18.80;31.70;;;;;;8363852;28;19923;-43
2023/01/30 08:05:29;;;;;;;;;;;18.90;31.80;;;;;;8363418;28;19967;-43
2023/01/30 08:09:29;;;;;;;;;;;18.90;31.80;;;;;;8363137;28;19956;-43
2023/01/30 08:13:30;;;;;;;;;;;18.90;31.70;;;;;;8358993;28;19929;-43
2023/01/30 08:17:30;;;;;;;;;;;18.90;31.70;;;;;;8363454;28;19924;-43
2023/01/30 08:21:31;;;;;;;;;;;18.90;31.70;;;;;;8362778;28;20425;-43
2023/01/30 08:25:31;;;;;;;;;;;18.90;31.70;;;;;;8363488;28;19913;-43
2023/01/30 08:29:32;;;;;;;;;;;18.80;31.60;;;;;;8363111;28;19927;-42
2023/01/30 08:33:32;;;;;;;;;;;18.80;31.70;;;;;;8362364;28;19948;-43
2023/01/30 08:37:32;;;;;;;;;;;18.80;31.70;;;;;;8363243;28;19917;-43
2023/01/30 08:41:33;;;;;;;;;;;18.80;31.70;;;;;;8362509;28;19913;-42
2023/01/30 08:45:33;;;;;;;;;;;18.70;31.60;;;;;;8362902;28;20369;-43
2023/01/30 08:49:34;;;;;;;;;;;18.70;31.70;;;;;;8363107;28;19916;-43
2023/01/30 08:53:34;;;;;;;;;;;18.60;31.60;;;;;;8362131;28;19928;-43
2023/01/30 08:57:35;;;;;;;;;;;18.60;31.60;;;;;;8364639;28;19925;-43
2023/01/30 09:01:37;;;;;;;;;;;18.60;31.70;;;;;;8369343;28;19958;-43
2023/01/30 09:05:37;;;;;;;;;;;18.50;31.70;;;;;;8369024;28;19940;-42
2023/01/30 09:09:37;;;;;;;;;;;18.50;31.80;;;;;;8369179;28;19924;-43
2023/01/30 09:13:42;;;;;;;;;;;18.50;31.80;;;;;;8368597;28;19924;-43
2023/01/30 09:17:43;;;;;;;;;;;18.40;31.80;;;;;;8368204;28;20301;-44
2023/01/30 09:21:44;;;;;;;;;;;18.40;31.80;;;;;;8368755;28;20354;-43
2023/01/30 09:25:44;;;;;;;;;;;18.40;31.90;;;;;;8368973;28;19921;-44
2023/01/30 09:29:45;;;;;;;;;;;18.30;31.90;;;;;;8367773;28;19921;-44
2023/01/30 09:33:45;;;;;;;;;;;18.30;31.90;;;;;;8368071;28;19925;-44
2023/01/30 09:37:47;;;;;;;;;;;18.30;32.00;;;;;;8368168;28;20000;-44
2023/01/30 09:41:52;;;;;;;;;;;18.30;32.10;;;;;;8367575;28;20365;-44
2023/01/30 09:46:13;;;;;;;;;;;18.20;32.10;;;;;;8368466;28;20316;-45
2023/01/30 09:50:35;;;;;;;;;;;18.20;32.20;;;;;;8368011;28;19923;-45
2023/01/30 09:54:38;;;;;;;;;;;18.10;32.10;;;;;;8367340;28;19960;-44
2023/01/30 09:58:50;;;;;;;;;;;18.10;32.20;;;;;;8367505;28;19920;-45
2023/01/30 10:03:11;;;;;;;;;;;18.10;32.20;;;;;;8366854;28;19963;-45
2023/01/30 10:07:21;;;;;;;;;;;18.10;32.20;;;;;;8367405;28;19917;-44
2023/01/30 10:11:40;;;;;;;;;;;18.00;32.20;;;;;;8365905;28;20328;-44
2023/01/30 10:15:50;;;;;;;;;;;18.00;32.20;;;;;;8366834;28;19927;-46
2023/01/30 10:19:59;;;;;;;;;;;18.00;32.20;;;;;;8366877;28;19916;-44
2023/01/30 10:24:05;;;;;;;;;;;18.00;32.20;;;;;;8366287;28;20407;-44
2023/01/30 10:28:13;;;;;;;;;;;18.00;32.20;;;;;;8366431;28;19916;-45
2023/01/30 10:32:15;;;;;;;;;;;18.00;32.30;;;;;;8366330;28;20382;-45
2023/01/30 10:36:20;;;;;;;;;;;17.90;32.30;;;;;;8365941;28;19960;-43
2023/01/30 10:40:25;;;;;;;;;;;17.90;32.30;;;;;;8366379;28;19913;-44
2023/01/30 10:44:25;;;;;;;;;;;17.90;32.30;;;;;;8366176;28;19920;-45
2023/01/30 10:48:28;;;;;;;;;;;17.90;32.30;;;;;;8365278;28;20061;-45
2023/01/30 10:52:35;;;;;;;;;;;17.90;32.30;;;;;;8365732;28;20358;-46
2023/01/30 10:56:41;;;;;;;;;;;17.90;32.30;;;;;;8364830;28;19929;-44
2023/01/30 11:00:51;;;;;;;;;;;17.80;32.30;;;;;;8365659;28;20293;-45
2023/01/30 11:05:11;;;;;;;;;;;17.80;32.30;;;;;;8365281;28;20354;-45
2023/01/30 11:09:12;;;;;;;;;;;17.80;32.30;;;;;;8322343;28;19917;-45
2023/01/30 11:13:16;;;;;;;;;;;17.80;32.30;;;;;;8345856;28;19916;-46
2023/01/30 11:17:18;;;;;;;;;;;17.80;32.40;;;;;;8364910;28;19923;-45
2023/01/30 11:21:21;;;;;;;;;;;17.80;32.40;;;;;;8364233;28;19917;-44
2023/01/30 11:25:21;;;;;;;;;;;17.80;32.40;;;;;;8364707;28;20381;-45
2023/01/30 11:29:26;;;;;;;;;;;17.70;32.40;;;;;;8364401;28;19912;-45
2023/01/30 11:33:31;;;;;;;;;;;17.70;32.40;;;;;;8363994;28;19928;-45
2023/01/30 11:37:38;;;;;;;;;;;17.70;32.40;;;;;;8364777;28;19948;-44
2023/01/30 11:41:42;;;;;;;;;;;17.70;32.30;;;;;;8364215;28;19944;-45
2023/01/30 11:45:45;;;;;;;;;;;17.70;32.30;;;;;;8364240;28;20067;-45
2023/01/30 11:49:51;;;;;;;;;;;17.80;32.30;;;;;;8363744;28;19979;-44
2023/01/30 11:53:56;;;;;;;;;;;17.80;32.30;;;;;;8363341;28;19920;-44
2023/01/30 11:58:00;;;;;;;;;;;17.80;32.30;;;;;;8364088;28;19921;-43
2023/01/30 12:02:01;;;;;;;;;;;17.80;32.30;;;;;;8363483;28;19920;-43
2023/01/30 12:06:02;;;;;;;;;;;17.70;32.20;;;;;;8363241;28;19913;-44
2023/01/30 12:10:24;;;;;;;;;;;17.70;32.30;;;;;;8363279;28;19917;-44
2023/01/30 12:14:37;;;;;;;;;;;17.70;32.90;;;;;;8363143;28;19925;-44
2023/01/30 12:18:42;;;;;;;;;;;17.70;32.30;;;;;;8363107;28;20437;-43
2023/01/30 12:22:52;;;;;;;;;;;17.70;32.40;;;;;;8363184;28;20016;-45
2023/01/30 12:26:59;;;;;;;;;;;17.70;32.30;;;;;;8362942;28;19925;-43
2023/01/30 12:31:10;;;;;;;;;;;17.70;32.30;;;;;;8362758;28;19927;-43
2023/01/30 12:35:16;;;;;;;;;;;17.70;32.30;;;;;;8362519;28;20023;-44
2023/01/30 12:39:35;;;;;;;;;;;17.70;32.30;;;;;;8362430;28;19996;-44
2023/01/30 12:43:54;;;;;;;;;;;17.70;32.30;;;;;;8362666;28;19917;-45
2023/01/30 12:48:03;;;;;;;;;;;17.70;32.40;;;;;;8362246;28;19924;-44
2023/01/30 12:52:10;;;;;;;;;;;17.70;32.30;;;;;;8362931;28;20422;-44
2023/01/30 12:56:10;;;;;;;;;;;17.70;32.40;;;;;;8363088;28;20285;-44
2023/01/30 13:00:29;;;;;;;;;;;17.60;32.30;;;;;;8362005;28;19924;-44
2023/01/30 13:04:42;;;;;;;;;;;17.60;32.40;;;;;;8362140;28;19928;-43
2023/01/30 13:08:57;;;;;;;;;;;17.60;32.30;;;;;;8361876;28;20058;-44
2023/01/30 13:13:09;;;;;;;;;;;17.70;32.30;;;;;;8362491;28;19962;-44
2023/01/30 13:17:15;;;;;;;;;;;17.70;32.30;;;;;;8362646;28;20440;-44
2023/01/30 13:21:20;;;;;;;;;;;17.70;32.20;;;;;;8361906;28;19917;-44
2023/01/30 13:25:26;;;;;;;;;;;17.70;32.20;;;;;;8362462;28;19952;-44
2023/01/30 13:29:37;;;;;;;;;;;17.70;32.20;;;;;;8362255;28;20486;-46
2023/01/30 13:33:40;;;;;;;;;;;17.70;32.20;;;;;;8361940;28;19952;-43
2023/01/30 13:37:41;;;;;;;;;;;17.70;32.20;;;;;;8362001;28;20366;-45
2023/01/30 13:41:44;;;;;;;;;;;17.70;32.20;;;;;;8361793;28;20476;-43
2023/01/30 13:45:47;;;;;;;;;;;17.70;32.20;;;;;;8366843;28;19917;-44
2023/01/30 13:50:17;;;;;;;;;;;17.70;32.20;;;;;;8367833;28;20020;-44
2023/01/30 13:54:42;;;;;;;;;;;17.70;32.20;;;;;;8366949;28;19925;-45
2023/01/30 13:58:48;;;;;;;;;;;17.70;32.30;;;;;;8367375;28;20301;-44
2023/01/30 14:03:07;;;;;;;;;;;17.70;32.30;;;;;;8366999;28;19948;-45
2023/01/30 14:07:07;;;;;;;;;;;17.70;32.30;;;;;;8341881;28;19921;-44
2023/01/30 14:11:30;;;;;;;;;;;17.70;32.40;;;;;;8362825;28;19996;-44
2023/01/30 14:15:30;;;;;;;;;;;17.70;32.40;;;;;;8366429;28;20409;-44
2023/01/30 14:19:33;;;;;;;;;;;17.70;32.50;;;;;;8365888;28;19964;-44
2023/01/30 14:23:35;;;;;;;;;;;17.60;32.40;;;;;;8366093;28;19917;-44
2023/01/30 14:27:35;;;;;;;;;;;17.60;32.50;;;;;;8367032;28;20290;-44
2023/01/30 14:31:47;;;;;;;;;;;17.60;32.50;;;;;;8366310;28;19917;-45
2023/01/30 14:36:08;;;;;;;;;;;17.60;32.60;;;;;;8365820;28;19996;-43
2023/01/30 14:40:20;;;;;;;;;;;17.60;32.60;;;;;;8366352;28;19917;-44
2023/01/30 14:44:39;;;;;;;;;;;17.60;32.70;;;;;;8365909;28;19917;-44
2023/01/30 14:48:46;;;;;;;;;;;17.60;32.70;;;;;;8365470;28;20435;-46
2023/01/30 14:52:48;;;;;;;;;;;17.60;32.70;;;;;;8365136;28;19936;-47
2023/01/30 14:56:57;;;;;;;;;;;17.50;32.70;;;;;;8364269;28;20301;-47
2023/01/30 15:00:58;;;;;;;;;;;17.50;32.70;;;;;;8365256;28;19917;-44
2023/01/30 15:05:04;;;;;;;;;;;17.50;32.80;;;;;;8365200;28;19923;-45
2023/01/30 15:09:05;;;;;;;;;;;17.50;32.80;;;;;;8364662;28;19924;-45
2023/01/30 15:13:12;;;;;;;;;;;17.50;32.80;;;;;;8365520;28;20226;-48
2023/01/30 15:17:18;;;;;;;;;;;17.50;32.90;;;;;;8365221;28;20020;-45
2023/01/30 15:21:40;;;;;;;;;;;17.50;32.90;;;;;;8364311;28;19917;-45
2023/01/30 15:25:53;;;;;;;;;;;17.50;32.90;;;;;;8324301;28;19924;-45
2023/01/30 15:29:59;;;;;;;;;;;17.40;32.80;;;;;;8363942;28;19929;-45
2023/01/30 15:33:59;;;;;;;;;;;17.50;32.90;;;;;;8364578;28;20126;-48
2023/01/30 15:38:00;;;;;;;;;;;17.50;32.90;;;;;;8364414;28;19966;-46
2023/01/30 15:42:05;;;;;;;;;;;17.50;33.00;;;;;;8363773;28;19924;-46
2023/01/30 15:46:24;;;;;;;;;;;17.50;32.90;;;;;;8363972;28;19970;-46
2023/01/30 15:50:24;;;;;;;;;;;17.50;32.90;;;;;;8363967;28;20000;-46
2023/01/30 15:54:25;;;;;;;;;;;17.50;32.90;;;;;;8363194;28;20386;-45
2023/01/30 15:58:26;;;;;;;;;;;17.50;33.00;;;;;;8364072;28;19963;-46
2023/01/30 16:02:31;;;;;;;;;;;17.50;33.00;;;;;;8363754;28;19924;-46
2023/01/30 16:06:33;;;;;;;;;;;17.50;33.00;;;;;;8361775;28;20002;-46
2023/01/30 16:10:42;;;;;;;;;;;17.50;33.10;;;;;;8363647;28;19923;-46
2023/01/30 16:14:42;;;;;;;;;;;17.50;33.00;;;;;;8362990;28;19968;-45
2023/01/30 16:18:43;;;;;;;;;;;17.60;33.10;;;;;;8363562;28;19917;-45
2023/01/30 16:22:46;;;;;;;;;;;17.70;33.00;;;;;;8363353;28;19921;-45
2023/01/30 16:26:48;;;;;;;;;;;17.70;32.90;;;;;;8362558;28;19913;-47
2023/01/30 16:30:55;;;;;;;;;;;17.80;32.90;;;;;;8362950;28;20404;-48
2023/01/30 16:35:15;;;;;;;;;;;17.90;32.90;;;;;;8362899;28;20332;-47
2023/01/30 16:39:27;;;;;;;;;;;17.90;32.90;;;;;;8362462;28;19916;-47
2023/01/30 16:43:29;;;;;;;;;;;18.00;32.80;;;;;;8363064;28;19917;-46
2023/01/30 16:47:30;;;;;;;;;;;18.00;32.90;;;;;;8362637;28;19944;-48
2023/01/30 16:51:30;;;;;;;;;;;18.10;32.80;;;;;;8362173;28;19928;-46
2023/01/30 16:55:31;;;;;;;;;;;18.10;32.80;;;;;;8362506;28;20264;-47
2023/01/30 16:59:33;;;;;;;;;;;18.10;32.70;;;;;;8362608;28;19924;-47
2023/01/30 17:03:35;;;;;;;;;;;18.20;32.80;;;;;;8362489;28;19919;-46
2023/01/30 17:07:36;;;;;;;;;;;18.20;32.70;;;;;;8362590;28;20420;-48
2023/01/30 17:11:40;;;;;;;;;;;18.30;32.70;;;;;;8354605;28;20329;-47
2023/01/30 17:15:41;;;;;;;;;;;18.30;32.90;;;;;;8343689;28;19925;-46
2023/01/30 17:19:45;;;;;;;;;;;18.30;32.70;;;;;;8365935;28;19917;-46
2023/01/30 17:23:46;;;;;;;;;;;18.30;32.70;;;;;;8368207;28;19917;-46
2023/01/30 17:27:47;;;;;;;;;;;18.30;32.70;;;;;;8368567;28;19940;-47
2023/01/30 17:31:48;;;;;;;;;;;18.30;32.60;;;;;;8368371;28;20008;-46
2023/01/30 17:35:49;;;;;;;;;;;18.40;32.70;;;;;;8367772;28;19947;-46
2023/01/30 17:39:49;;;;;;;;;;;18.40;32.70;;;;;;8368034;28;19921;-46
2023/01/30 17:43:50;;;;;;;;;;;18.50;32.70;;;;;;8368139;28;19917;-47
2023/01/30 17:47:50;;;;;;;;;;;18.50;32.70;;;;;;8367312;28;19917;-46
2023/01/30 17:51:51;;;;;;;;;;;18.50;32.70;;;;;;8367892;28;19973;-48
2023/01/30 17:55:51;;;;;;;;;;;18.50;32.60;;;;;;8367536;28;19932;-45
2023/01/30 17:59:53;;;;;;;;;;;18.60;32.70;;;;;;8366825;28;19924;-46
2023/01/30 18:03:53;;;;;;;;;;;18.60;32.70;;;;;;8367572;28;19999;-45
2023/01/30 18:07:53;;;;;;;;;;;18.60;32.60;;;;;;8367316;28;19917;-46
2023/01/30 18:11:54;;;;;;;;;;;18.60;32.60;;;;;;8366610;28;20369;-45
2023/01/30 18:15:58;;;;;;;;;;;18.60;32.60;;;;;;8366801;28;19932;-46
2023/01/30 18:19:59;;;;;;;;;;;18.70;32.70;;;;;;8366888;28;19917;-45
2023/01/30 18:24:00;;;;;;;;;;;18.70;32.60;;;;;;8366380;28;19947;-45
2023/01/30 18:28:01;;;;;;;;;;;18.70;32.60;;;;;;8366554;28;19924;-46
2023/01/30 18:32:04;;;;;;;;;;;18.80;32.70;;;;;;8365139;28;19971;-46
2023/01/30 18:36:08;;;;;;;;;;;18.80;32.60;;;;;;8365872;28;19967;-45
2023/01/30 18:40:12;;;;;;;;;;;18.80;32.60;;;;;;8366004;28;19970;-45
2023/01/30 18:44:12;;;;;;;;;;;18.80;32.60;;;;;;8365829;28;19913;-45
2023/01/30 18:48:13;;;;;;;;;;;18.80;32.60;;;;;;8365187;28;20282;-46
2023/01/30 18:52:13;;;;;;;;;;;18.80;32.60;;;;;;8365706;28;20369;-46
2023/01/30 18:56:15;;;;;;;;;;;18.80;32.80;;;;;;8365480;28;19925;-45
2023/01/30 19:00:17;;;;;;;;;;;18.90;32.70;;;;;;8364731;28;20281;-45
2023/01/30 19:04:18;;;;;;;;;;;18.90;32.70;;;;;;8365450;28;19996;-44
2023/01/30 19:08:18;;;;;;;;;;;18.90;32.70;;;;;;8365208;28;20297;-47
2023/01/30 19:16:38;;;;;;;;;;;18.90;32.60;;;;;;8364920;28;19931;-46
2023/01/30 19:20:38;;;;;;;;;;;19.00;32.60;;;;;;8364211;28;19917;-47
2023/01/30 19:24:39;;;;;;;;;;;19.00;32.60;;;;;;8365121;28;20255;-48
2023/01/30 19:28:40;;;;;;;;;;;18.90;32.60;;;;;;8364427;28;20012;-46
2023/01/30 19:32:41;;;;;;;;;;;19.00;32.60;;;;;;8363959;28;19917;-46
2023/01/30 19:36:41;;;;;;;;;;;19.00;32.60;;;;;;8364161;28;20393;-46
2023/01/30 19:40:42;;;;;;;;;;;19.00;32.60;;;;;;8364036;28;20328;-45
2023/01/30 19:44:43;;;;;;;;;;;19.10;32.60;;;;;;8363792;28;20411;-46
2023/01/30 19:48:44;;;;;;;;;;;19.10;32.60;;;;;;8364237;28;20011;-45
2023/01/30 19:52:44;;;;;;;;;;;19.10;32.60;;;;;;8364162;28;19971;-46
2023/01/30 19:56:47;;;;;;;;;;;19.10;32.60;;;;;;8363228;28;19970;-46
2023/01/30 20:00:49;;;;;;;;;;;19.10;32.60;;;;;;8364077;28;19917;-46
2023/01/30 20:04:49;;;;;;;;;;;19.10;32.60;;;;;;8362816;28;19913;-45
2023/01/30 20:08:53;;;;;;;;;;;19.10;32.60;;;;;;8363160;28;20399;-45
2023/01/30 20:12:53;;;;;;;;;;;19.20;32.60;;;;;;8363262;28;19917;-45
2023/01/30 20:16:54;;;;;;;;;;;19.20;32.60;;;;;;8363102;28;20378;-44
2023/01/30 20:20:54;;;;;;;;;;;19.20;32.60;;;;;;8362754;28;19970;-45
2023/01/30 20:24:55;;;;;;;;;;;19.20;32.60;;;;;;8363350;28;19917;-45
2023/01/30 20:28:55;;;;;;;;;;;19.20;32.60;;;;;;8363085;28;20366;-45
2023/01/30 20:32:56;;;;;;;;;;;19.20;33.20;;;;;;8362601;28;19921;-45
2023/01/30 20:36:58;;;;;;;;;;;19.30;32.70;;;;;;8362973;28;19928;-45
2023/01/30 20:40:59;;;;;;;;;;;19.30;32.70;;;;;;8363172;28;20397;-44
2023/01/30 20:44:59;;;;;;;;;;;19.30;32.70;;;;;;8362752;28;19948;-45
2023/01/30 20:49:00;;;;;;;;;;;19.30;32.70;;;;;;8362849;28;19925;-45
2023/01/30 20:53:00;;;;;;;;;;;19.30;32.60;;;;;;8363915;28;19921;-46
2023/01/30 20:57:01;;;;;;;;;;;19.30;32.60;;;;;;8369212;28;19932;-45
2023/01/30 21:01:14;;;;;;;;;;;19.40;32.70;;;;;;8369395;28;19912;-46
2023/01/30 21:05:15;;;;;;;;;;;19.30;32.60;;;;;;8369626;28;19917;-45
2023/01/30 21:09:16;;;;;;;;;;;19.40;32.70;;;;;;8368721;28;19947;-45
2023/01/30 21:13:17;;;;;;;;;;;19.40;32.60;;;;;;8368984;28;19999;-44
2023/01/30 21:17:17;;;;;;;;;;;19.40;32.60;;;;;;8368880;28;20020;-44
2023/01/30 21:21:22;;;;;;;;;;;19.40;32.60;;;;;;8368378;28;19955;-45
2023/01/30 21:25:23;;;;;;;;;;;19.40;32.60;;;;;;8368938;28;20316;-51
2023/01/30 21:29:24;;;;;;;;;;;19.40;32.50;;;;;;8368483;28;19924;-45
2023/01/30 21:33:25;;;;;;;;;;;19.40;32.50;;;;;;8368145;28;19924;-48
2023/01/30 21:43:12;;;;;;;;;;;19.30;32.60;;;;;;8367946;28;19983;-45
2023/01/30 21:46:05;;;;;;;;;;;19.20;32.60;;;;;;8368089;28;19921;-45
2023/01/30 21:50:05;;;;;;;;;;;19.20;32.60;;;;;;8368211;28;19999;-45
2023/01/30 21:54:06;;;;;;;;;;;19.20;32.70;;;;;;8367198;28;20008;-46
2023/01/30 21:58:06;;;;;;;;;;;19.20;32.70;;;;;;8367870;28;19921;-46
2023/01/30 22:02:08;;;;;;;;;;;19.10;32.70;;;;;;8367493;28;19920;-45
2023/01/30 22:06:09;;;;;;;;;;;19.10;32.70;;;;;;8366917;28;19963;-45
2023/01/30 22:10:09;;;;;;;;;;;19.10;32.70;;;;;;8367452;28;20561;-47
2023/01/30 22:14:13;;;;;;;;;;;19.00;32.70;;;;;;8367159;28;19933;-45
2023/01/30 22:18:14;;;;;;;;;;;19.00;32.80;;;;;;8366534;28;20384;-46
2023/01/30 22:22:14;;;;;;;;;;;19.00;32.80;;;;;;8367227;28;19913;-45
2023/01/30 22:26:15;;;;;;;;;;;19.00;32.80;;;;;;8366842;28;19924;-46
2023/01/30 22:30:16;;;;;;;;;;;18.90;32.80;;;;;;8366494;28;19917;-45
2023/01/30 22:34:17;;;;;;;;;;;18.90;32.90;;;;;;8366561;28;19944;-48
2023/01/30 22:38:19;;;;;;;;;;;18.80;32.90;;;;;;8366559;28;19994;-48
2023/01/30 22:42:19;;;;;;;;;;;18.80;33.00;;;;;;8365733;28;19971;-46
2023/01/30 22:46:20;;;;;;;;;;;18.80;33.00;;;;;;8366781;28;19916;-46
2023/01/30 22:50:20;;;;;;;;;;;18.70;33.00;;;;;;8366170;28;19920;-46
2023/01/30 22:54:22;;;;;;;;;;;18.70;33.10;;;;;;8365201;28;19985;-46
2023/01/30 22:58:22;;;;;;;;;;;18.60;33.10;;;;;;8365769;28;19927;-48
2023/01/30 23:02:23;;;;;;;;;;;18.60;33.20;;;;;;8364044;28;20273;-45
2023/01/30 23:06:24;;;;;;;;;;;18.50;33.20;;;;;;8364310;28;19921;-45
2023/01/30 23:10:24;;;;;;;;;;;18.50;33.20;;;;;;8365193;28;19917;-46
2023/01/30 23:14:25;;;;;;;;;;;18.50;33.20;;;;;;8365254;28;19925;-46
2023/01/30 23:22:48;;;;;;;;;;;18.40;33.20;;;;;;8365247;28;19986;-45
2023/01/30 23:26:50;;;;;;;;;;;18.40;33.30;;;;;;8364383;28;20004;-44
2023/01/30 23:30:50;;;;;;;;;;;18.30;33.30;;;;;;8365072;28;19916;-44
2023/01/30 23:34:51;;;;;;;;;;;18.30;33.30;;;;;;8364501;28;19931;-44
2023/01/30 23:38:52;;;;;;;;;;;18.20;33.30;;;;;;8364130;28;19916;-44
2023/01/30 23:42:52;;;;;;;;;;;18.20;33.30;;;;;;8364273;28;19917;-44
2023/01/30 23:46:53;;;;;;;;;;;18.20;33.30;;;;;;8364255;28;20004;-45
2023/01/30 23:50:53;;;;;;;;;;;18.20;33.40;;;;;;8364139;28;19917;-45